FAOR/JNB METAR and TAF weather

Enter ICAO airport designator
Station Type Date Time Source
FAOR METAR 2018/04/20 09:00 UTC NOAA

FAOR 200900Z 03011KT 9999 BKN039 18/13 Q1024 NOSIG


Station Type Date Time Source
FAOR Decoded METAR 2018/04/20 09:00 UTC NOAA

Station name not available
Apr 20, 2018 - 05:00 AM EDT / 2018.04.20 0900 UTC
Wind: from the NNE (030 degrees) at 13 MPH (11 KT):0
Visibility: greater than 7 mile(s):0
Sky conditions: mostly cloudy
Temperature: 64 F (18 C)
Dew Point: 55 F (13 C)
Relative Humidity: 72%
Pressure (altimeter): 30.24 in. Hg (1024 hPa)
ob: FAOR 200900Z 03011KT 9999 BKN039 18/13 Q1024 NOSIG
cycle: 9

Station Type Date Time Source
FAOR TAF 2018/04/20 06:00 UTC NOAA

TAF FAOR 200400Z 2006/2112 12007KT 9999 BKN014 PROB40
TEMPO 2006/2007 4000 BR BKN005
BECMG 2008/2010 01010KT BKN025
FM201000 33012KT 9999 SCT040 PROB40
TEMPO 2011/2015 FEW040TCU PROB30
TEMPO 2013/2018 -TSRA FEW040CB
BECMG 2022/2024 VRB03KT BKN013
TEMPO 2100/2106 3000 BR BKN003
BECMG 2108/2110 BKN018
BECMG 2110/2112 30007KT SCT035 TX21/2012Z TN10/2104Z


Example: see airport list